createdAt,value
2022-09-07T00:01:08.649Z,0.93
2022-09-07T00:03:37.111Z,1.10
2022-09-07T00:06:08.387Z,1.00
2022-09-07T00:08:38.835Z,0.80
2022-09-07T00:11:08.943Z,0.77
2022-09-07T00:13:39.213Z,1.05
2022-09-07T00:16:10.028Z,0.90
2022-09-07T00:18:42.408Z,0.77
2022-09-07T00:21:14.115Z,1.10
2022-09-07T00:23:44.027Z,0.80
2022-09-07T00:26:15.742Z,0.80
2022-09-07T00:31:14.555Z,0.90
2022-09-07T00:33:43.161Z,1.23
2022-09-07T00:36:11.628Z,0.82
2022-09-07T00:38:40.147Z,0.90
2022-09-07T00:41:09.849Z,0.85
2022-09-07T00:43:39.952Z,0.85
2022-09-07T00:46:13.434Z,1.10
2022-09-07T00:48:46.034Z,0.90
2022-09-07T00:51:18.432Z,1.20
2022-09-07T00:53:49.529Z,0.90
2022-09-07T00:56:19.216Z,0.88
2022-09-07T00:58:47.395Z,0.77
2022-09-07T01:01:16.807Z,1.08
2022-09-07T01:03:49.137Z,0.98
2022-09-07T01:06:19.929Z,0.98
2022-09-07T01:08:50.980Z,1.13
2022-09-07T01:11:23.126Z,1.23
2022-09-07T01:13:52.596Z,1.10
2022-09-07T01:16:34.087Z,0.77
2022-09-07T01:19:25.801Z,1.20
2022-09-07T01:22:05.613Z,1.52
2022-09-07T01:24:43.124Z,1.42
2022-09-07T01:27:37.166Z,1.50
2022-09-07T01:30:07.271Z,2.13
2022-09-07T01:32:51.702Z,3.13
2022-09-07T01:35:24.214Z,1.33
2022-09-07T01:37:59.723Z,1.30
2022-09-07T01:40:39.047Z,1.65
2022-09-07T01:43:17.299Z,1.20
2022-09-07T01:45:46.920Z,1.20
2022-09-07T01:48:18.695Z,1.75
2022-09-07T01:53:22.359Z,1.45
2022-09-07T01:55:54.795Z,1.05
2022-09-07T01:58:29.294Z,1.50
2022-09-07T02:01:02.927Z,1.70
2022-09-07T02:03:35.874Z,1.13
2022-09-07T02:06:13.806Z,1.80
2022-09-07T02:08:47.243Z,1.25
2022-09-07T02:11:20.672Z,1.15
2022-09-07T02:13:54.407Z,1.48
2022-09-07T02:16:27.333Z,1.27
2022-09-07T02:18:58.489Z,2.30
2022-09-07T02:21:34.101Z,1.90
2022-09-07T02:24:06.312Z,2.03
2022-09-07T02:26:38.650Z,1.60
2022-09-07T02:29:08.840Z,1.20
2022-09-07T02:31:37.022Z,2.20
2022-09-07T02:34:05.478Z,1.35
2022-09-07T02:36:37.612Z,1.23
2022-09-07T02:39:05.921Z,1.27
2022-09-07T02:41:36.970Z,1.42
2022-09-07T02:44:08.819Z,2.08
2022-09-07T02:46:50.741Z,1.58
2022-09-07T02:52:05.503Z,0.80
2022-09-07T02:54:48.402Z,1.58
2022-09-07T02:57:27.443Z,1.33
2022-09-07T03:00:07.070Z,1.27
2022-09-07T03:02:44.670Z,0.98
2022-09-07T03:05:19.149Z,1.10
2022-09-07T03:07:55.873Z,1.27
2022-09-07T03:10:25.705Z,1.02
2022-09-07T03:12:53.923Z,1.00
2022-09-07T03:15:26.303Z,1.10
2022-09-07T03:17:55.086Z,0.95
2022-09-07T03:20:23.906Z,1.17
2022-09-07T03:22:53.399Z,1.23
2022-09-07T03:25:23.105Z,1.33
2022-09-07T03:27:51.348Z,1.38
2022-09-07T03:30:19.695Z,1.63
2022-09-07T03:32:49.245Z,1.23
2022-09-07T03:35:17.920Z,1.00
2022-09-07T03:37:46.146Z,1.00
2022-09-07T03:40:16.010Z,1.42
2022-09-07T03:42:44.465Z,1.08
2022-09-07T03:45:12.894Z,1.17
2022-09-07T03:47:41.325Z,1.13
2022-09-07T03:50:11.465Z,1.10
2022-09-07T03:52:39.786Z,1.00
2022-09-07T03:55:08.567Z,1.20
2022-09-07T03:57:36.696Z,1.75
2022-09-07T04:00:06.304Z,1.23
2022-09-07T04:02:34.558Z,1.10
2022-09-07T04:05:02.735Z,1.25
2022-09-07T04:07:32.268Z,1.50
2022-09-07T04:10:00.418Z,1.30
2022-09-07T04:12:28.893Z,1.23
2022-09-07T04:14:57.031Z,1.33
2022-09-07T04:17:25.237Z,1.20
2022-09-07T04:19:53.429Z,0.90
2022-09-07T04:22:21.567Z,1.50
2022-09-07T04:24:51.249Z,1.30
2022-09-07T04:27:19.446Z,1.25
2022-09-07T04:29:49.047Z,1.60
2022-09-07T04:32:17.163Z,1.67
2022-09-07T04:34:45.320Z,1.30
2022-09-07T04:37:13.655Z,1.30
2022-09-07T04:39:42.003Z,1.10
2022-09-07T04:42:11.792Z,1.80
2022-09-07T04:44:39.925Z,1.20
2022-09-07T04:47:08.683Z,1.27
2022-09-07T04:49:36.978Z,1.40
2022-09-07T04:52:05.204Z,1.48
2022-09-07T04:54:33.483Z,1.65
2022-09-07T04:57:01.659Z,1.67
2022-09-07T04:59:31.362Z,1.00
2022-09-07T05:01:59.568Z,1.52
2022-09-07T05:04:27.851Z,1.50
2022-09-07T05:06:56.127Z,1.20
2022-09-07T05:09:24.307Z,1.40
2022-09-07T05:11:52.551Z,1.75
2022-09-07T05:14:20.740Z,1.30
2022-09-07T05:16:50.436Z,1.35
2022-09-07T05:19:18.591Z,1.40
2022-09-07T05:21:46.900Z,1.33
2022-09-07T05:24:15.037Z,1.15
2022-09-07T05:26:43.198Z,1.50
2022-09-07T05:32:01.959Z,1.38
2022-09-07T05:34:30.587Z,1.38
2022-09-07T05:37:00.184Z,2.03
2022-09-07T05:39:29.098Z,1.40
2022-09-07T05:41:57.417Z,1.50
2022-09-07T05:47:15.924Z,1.88
2022-09-07T05:49:44.174Z,1.85
2022-09-07T05:52:12.930Z,1.55
2022-09-07T05:54:41.250Z,1.27
2022-09-07T05:57:12.613Z,1.40
2022-09-07T05:59:40.954Z,1.08
2022-09-07T06:02:11.265Z,1.90
2022-09-07T06:04:40.870Z,1.73
2022-09-07T06:07:24.624Z,1.58
2022-09-07T06:12:43.441Z,1.23
2022-09-07T06:15:15.225Z,1.90
2022-09-07T06:17:43.452Z,1.80
2022-09-07T06:20:13.152Z,2.10
2022-09-07T06:22:41.855Z,1.75
2022-09-07T06:25:10.611Z,1.70
2022-09-07T06:27:38.967Z,2.00
2022-09-07T06:30:08.487Z,1.58
2022-09-07T06:35:12.450Z,1.80
2022-09-07T06:37:40.847Z,1.70
2022-09-07T06:40:10.560Z,1.55
2022-09-07T06:42:38.889Z,1.63
2022-09-07T06:45:07.855Z,1.50
2022-09-07T06:47:35.971Z,1.50
2022-09-07T06:50:04.255Z,1.38
2022-09-07T06:55:22.711Z,1.70
2022-09-07T06:57:53.763Z,1.55
2022-09-07T07:00:22.007Z,1.70
2022-09-07T07:02:50.153Z,1.45
2022-09-07T07:05:18.524Z,1.40
2022-09-07T07:07:48.120Z,1.45
2022-09-07T07:10:18.737Z,1.60
2022-09-07T07:12:49.105Z,1.75
2022-09-07T07:15:17.467Z,1.70
2022-09-07T07:17:56.136Z,1.30
2022-09-07T07:20:27.463Z,1.50
2022-09-07T07:22:57.174Z,1.73
2022-09-07T07:25:25.387Z,1.48
2022-09-07T07:27:53.734Z,1.30
2022-09-07T07:30:21.994Z,1.50
2022-09-07T07:32:50.415Z,1.27
2022-09-07T07:35:18.769Z,1.33
2022-09-07T07:37:48.087Z,1.90
2022-09-07T07:40:19.938Z,1.60
2022-09-07T07:42:51.644Z,1.33
2022-09-07T07:48:08.013Z,1.40
2022-09-07T07:50:36.170Z,1.40
2022-09-07T07:55:55.117Z,1.05
2022-09-07T07:58:23.232Z,1.40
2022-09-07T08:00:54.892Z,2.08
2022-09-07T08:03:24.815Z,1.15
2022-09-07T08:05:53.233Z,1.35
2022-09-07T08:08:21.837Z,1.38
2022-09-07T08:10:49.978Z,1.33
2022-09-07T08:13:19.924Z,1.83
2022-09-07T08:15:48.089Z,1.50
2022-09-07T08:18:17.796Z,1.67
2022-09-07T08:20:45.945Z,1.45
2022-09-07T08:23:15.213Z,1.52
2022-09-07T08:25:51.656Z,1.60
2022-09-07T08:28:21.645Z,1.70
2022-09-07T08:30:50.156Z,1.35
2022-09-07T08:33:18.979Z,1.80
2022-09-07T08:35:56.616Z,1.30
2022-09-07T08:38:25.031Z,1.30
2022-09-07T08:40:53.416Z,1.25
2022-09-07T08:43:36.854Z,1.33
2022-09-07T08:46:11.303Z,1.38
2022-09-07T08:48:40.101Z,1.10
2022-09-07T08:51:13.807Z,1.30
2022-09-07T08:53:46.871Z,1.10
2022-09-07T08:56:20.752Z,1.40
2022-09-07T08:58:53.262Z,1.13
2022-09-07T09:01:31.516Z,1.25
2022-09-07T09:04:16.572Z,1.38
2022-09-07T09:07:05.190Z,1.48
2022-09-07T09:09:46.118Z,1.23
2022-09-07T09:12:24.283Z,1.37
2022-09-07T09:15:06.184Z,1.30
2022-09-07T09:17:38.896Z,1.27
2022-09-07T09:20:18.230Z,1.65
2022-09-07T09:22:46.687Z,1.30
2022-09-07T09:25:19.949Z,1.33
2022-09-07T09:27:48.591Z,1.70
2022-09-07T09:30:20.237Z,1.85
2022-09-07T09:32:50.462Z,1.20
2022-09-07T09:35:33.455Z,1.40
2022-09-07T09:38:03.637Z,1.67
2022-09-07T09:40:33.842Z,1.25
2022-09-07T09:43:04.498Z,1.33
2022-09-07T09:48:33.767Z,1.60
2022-09-07T09:53:58.799Z,1.33
2022-09-07T09:56:42.963Z,1.17
2022-09-07T10:05:28.416Z,1.38
2022-09-07T10:07:57.000Z,1.40
2022-09-07T10:10:27.374Z,1.20
2022-09-07T10:12:56.601Z,1.50
2022-09-07T10:15:40.002Z,1.48
2022-09-07T10:18:21.806Z,1.25
2022-09-07T10:20:50.378Z,1.23
2022-09-07T10:23:24.177Z,1.33
2022-09-07T10:25:52.265Z,1.25
2022-09-07T10:28:22.543Z,1.60
2022-09-07T10:31:15.003Z,1.27
2022-09-07T10:36:49.532Z,1.10
2022-09-07T10:39:24.414Z,1.38
2022-09-07T10:42:02.355Z,1.10
2022-09-07T10:44:48.625Z,1.08
2022-09-07T10:47:26.789Z,1.33
2022-09-07T10:53:13.371Z,1.10
2022-09-07T10:55:59.160Z,1.17
2022-09-07T11:01:32.307Z,1.20
2022-09-07T11:04:34.594Z,1.50
2022-09-07T11:07:15.693Z,1.25
2022-09-07T11:09:57.115Z,1.55
2022-09-07T11:12:29.959Z,1.23
2022-09-07T11:15:09.143Z,1.58
2022-09-07T11:17:47.379Z,1.13
2022-09-07T11:23:02.072Z,1.00
2022-09-07T11:25:36.288Z,1.63
2022-09-07T11:28:09.605Z,2.33
2022-09-07T11:30:44.599Z,1.52
2022-09-07T11:33:17.892Z,0.90
2022-09-07T11:35:50.641Z,1.17
2022-09-07T11:38:32.255Z,0.95
2022-09-07T11:41:14.136Z,0.70
2022-09-07T11:43:47.246Z,0.70
2022-09-07T11:46:17.813Z,0.70
2022-09-07T11:48:49.481Z,0.90
2022-09-07T11:51:22.850Z,0.75
2022-09-07T11:53:56.277Z,0.80
2022-09-07T11:56:36.283Z,0.90
2022-09-07T11:59:33.644Z,0.80
2022-09-07T12:02:42.164Z,0.65
2022-09-07T12:05:24.269Z,0.73
2022-09-07T12:08:20.549Z,0.70
2022-09-07T12:11:11.115Z,0.68
2022-09-07T12:13:56.799Z,0.95
2022-09-07T12:16:37.913Z,0.40
2022-09-07T12:19:19.003Z,0.50
2022-09-07T12:21:50.432Z,0.70
2022-09-07T12:27:11.592Z,0.73
2022-09-07T12:29:45.159Z,0.80
2022-09-07T12:35:02.131Z,0.40
2022-09-07T12:37:42.591Z,0.45
2022-09-07T12:43:31.387Z,0.45
2022-09-07T12:46:01.803Z,0.60
2022-09-07T12:48:50.515Z,0.50
2022-09-07T12:54:27.255Z,0.43
2022-09-07T13:00:04.542Z,0.60
2022-09-07T13:02:49.337Z,0.70
2022-09-07T13:05:28.425Z,0.50
2022-09-07T13:08:22.325Z,0.40
2022-09-07T13:10:50.556Z,0.50
2022-09-07T13:17:16.113Z,0.50
2022-09-07T13:19:54.004Z,0.45
2022-09-07T13:22:58.855Z,0.57
2022-09-07T13:26:06.404Z,0.55
2022-09-07T13:28:52.548Z,0.80
2022-09-07T13:31:48.895Z,0.63
2022-09-07T13:34:44.881Z,0.77
2022-09-07T13:37:22.742Z,0.32
2022-09-07T13:39:56.281Z,0.47
2022-09-07T13:42:26.820Z,0.50
2022-09-07T13:44:57.699Z,0.63
2022-09-07T13:47:47.863Z,0.50
2022-09-07T13:50:24.307Z,0.60
2022-09-07T13:53:28.339Z,0.50
2022-09-07T13:56:08.598Z,0.60
2022-09-07T13:58:40.699Z,0.50
2022-09-07T14:01:16.396Z,0.52
2022-09-07T14:03:48.969Z,0.70
2022-09-07T14:06:31.239Z,0.68
2022-09-07T14:09:01.087Z,0.50
2022-09-07T14:11:39.482Z,0.60
2022-09-07T14:14:09.412Z,0.50
2022-09-07T14:16:38.282Z,0.60
2022-09-07T14:19:12.541Z,0.63
2022-09-07T14:21:41.333Z,0.40
2022-09-07T14:24:21.767Z,0.50
2022-09-07T14:26:51.462Z,0.40
2022-09-07T14:29:24.506Z,0.60
2022-09-07T14:31:54.274Z,0.40
2022-09-07T14:34:26.297Z,0.38
2022-09-07T14:36:57.545Z,0.70
2022-09-07T14:39:26.261Z,0.38
2022-09-07T14:41:56.044Z,0.30
2022-09-07T14:44:36.819Z,0.40
2022-09-07T14:47:10.708Z,0.35
2022-09-07T14:49:39.077Z,0.50
2022-09-07T14:52:07.231Z,0.40
2022-09-07T14:54:35.948Z,0.40
2022-09-07T14:57:22.839Z,0.52
2022-09-07T14:59:53.680Z,0.30
2022-09-07T15:02:28.590Z,0.40
2022-09-07T15:05:22.491Z,0.60
2022-09-07T15:07:52.124Z,0.80
2022-09-07T15:10:33.078Z,0.50
2022-09-07T15:13:03.721Z,0.32
2022-09-07T15:15:37.439Z,0.68
2022-09-07T15:18:27.533Z,0.68
2022-09-07T15:20:58.007Z,0.55
2022-09-07T15:23:28.780Z,0.57
2022-09-07T15:25:59.423Z,0.70
2022-09-07T15:34:16.342Z,0.52
2022-09-07T15:36:48.579Z,0.55
2022-09-07T15:39:18.510Z,0.47
2022-09-07T15:41:47.014Z,0.80
2022-09-07T15:44:20.415Z,0.75
2022-09-07T15:49:45.770Z,0.40
2022-09-07T15:52:17.799Z,0.40
2022-09-07T15:54:45.979Z,0.40
2022-09-07T16:00:04.462Z,0.50
2022-09-07T16:05:23.266Z,0.60
2022-09-07T16:10:39.748Z,0.60
2022-09-07T16:13:16.213Z,0.40
2022-09-07T16:15:47.854Z,0.50
2022-09-07T16:18:18.281Z,0.70
2022-09-07T16:20:47.331Z,0.50
2022-09-07T16:23:20.729Z,0.40
2022-09-07T16:25:59.213Z,0.68
2022-09-07T16:28:28.241Z,0.40
2022-09-07T16:30:58.234Z,0.93
2022-09-07T16:33:34.358Z,0.50
2022-09-07T16:36:07.626Z,0.47
2022-09-07T16:38:51.394Z,0.70
2022-09-07T16:41:21.301Z,0.35
2022-09-07T16:43:49.617Z,0.60
2022-09-07T16:46:21.129Z,0.47
2022-09-07T16:48:50.097Z,0.60
2022-09-07T16:51:21.171Z,0.40
2022-09-07T16:53:50.346Z,0.22
2022-09-07T16:56:20.466Z,0.50
2022-09-07T16:58:50.300Z,0.40
2022-09-07T17:01:22.418Z,0.52
2022-09-07T17:03:51.156Z,0.43
2022-09-07T17:06:21.396Z,0.60
2022-09-07T17:08:49.718Z,0.40
2022-09-07T17:11:19.626Z,0.50
2022-09-07T17:13:48.766Z,0.55
2022-09-07T17:16:20.874Z,0.43
2022-09-07T17:21:39.291Z,0.60
2022-09-07T17:24:09.700Z,0.70
2022-09-07T17:26:38.010Z,0.38
2022-09-07T17:29:07.190Z,0.50
2022-09-07T17:34:26.748Z,0.40
2022-09-07T17:36:54.973Z,0.50
2022-09-07T17:39:23.376Z,0.52
2022-09-07T17:41:52.846Z,0.77
2022-09-07T17:44:21.699Z,0.80
2022-09-07T17:46:51.576Z,0.50
2022-09-07T17:49:19.722Z,0.50
2022-09-07T17:51:47.878Z,0.47
2022-09-07T17:54:17.726Z,0.50
2022-09-07T17:56:46.573Z,0.70
2022-09-07T18:02:04.182Z,0.50
2022-09-07T18:04:32.382Z,0.50
2022-09-07T18:07:00.484Z,0.50
2022-09-07T18:09:28.592Z,0.57
2022-09-07T18:11:56.740Z,0.60
2022-09-07T18:14:25.086Z,0.70
2022-09-07T18:16:53.361Z,0.55
2022-09-07T18:19:24.257Z,0.70
2022-09-07T18:21:52.490Z,0.70
2022-09-07T18:24:22.970Z,0.60
2022-09-07T18:26:53.047Z,0.65
2022-09-07T18:29:37.429Z,0.70
2022-09-07T18:32:09.860Z,0.50
2022-09-07T18:34:41.271Z,0.82
2022-09-07T18:37:12.128Z,1.02
2022-09-07T18:39:41.046Z,0.77
2022-09-07T18:42:09.537Z,0.75
2022-09-07T18:47:28.790Z,0.70
2022-09-07T18:49:58.996Z,0.60
2022-09-07T18:55:15.624Z,0.50
2022-09-07T18:57:43.725Z,0.60
2022-09-07T19:00:13.699Z,0.55
2022-09-07T19:02:42.032Z,0.98
2022-09-07T19:08:03.350Z,0.70
2022-09-07T19:10:34.223Z,0.70
2022-09-07T19:13:02.326Z,0.60
2022-09-07T19:15:33.161Z,0.75
2022-09-07T19:18:05.793Z,0.70
2022-09-07T19:20:36.618Z,0.55
2022-09-07T19:23:04.888Z,0.73
2022-09-07T19:25:33.147Z,0.88
2022-09-07T19:28:01.335Z,1.35
2022-09-07T19:30:30.403Z,0.90
2022-09-07T19:33:03.353Z,1.65
2022-09-07T19:35:37.425Z,1.10
2022-09-07T19:38:05.821Z,1.33
2022-09-07T19:40:33.956Z,1.00
2022-09-07T19:43:02.162Z,1.35
2022-09-07T19:45:30.473Z,1.40
2022-09-07T19:47:58.856Z,0.90
2022-09-07T19:50:26.922Z,1.20
2022-09-07T19:52:56.499Z,1.45
2022-09-07T19:55:24.590Z,1.05
2022-09-07T19:57:52.780Z,0.95
2022-09-07T20:00:21.030Z,1.20
2022-09-07T20:02:50.234Z,1.42
2022-09-07T20:05:19.046Z,0.90
2022-09-07T20:07:47.167Z,1.30
2022-09-07T20:10:17.475Z,1.17
2022-09-07T20:12:45.654Z,0.82
2022-09-07T20:15:13.753Z,0.85
2022-09-07T20:17:41.831Z,1.05
2022-09-07T20:20:10.824Z,1.17
2022-09-07T20:22:38.879Z,1.13
2022-09-07T20:25:12.520Z,1.30
2022-09-07T20:27:42.723Z,1.80
2022-09-07T20:30:12.162Z,1.42
2022-09-07T20:32:40.218Z,1.52
2022-09-07T20:35:08.765Z,1.85
2022-09-07T20:37:36.852Z,1.27
2022-09-07T20:40:06.345Z,1.10
2022-09-07T20:42:34.566Z,1.27
2022-09-07T20:45:04.389Z,1.20
2022-09-07T20:47:32.411Z,1.23
2022-09-07T20:50:00.465Z,1.15
2022-09-07T20:52:28.530Z,1.00
2022-09-07T20:54:56.649Z,1.20
2022-09-07T20:57:24.872Z,1.17
2022-09-07T20:59:53.000Z,1.33
2022-09-07T21:02:22.496Z,1.90
2022-09-07T21:04:50.679Z,1.83
2022-09-07T21:07:18.722Z,1.33
2022-09-07T21:09:46.911Z,1.17
2022-09-07T21:12:15.038Z,1.13
2022-09-07T21:14:43.089Z,1.20
2022-09-07T21:17:11.156Z,0.90
2022-09-07T21:19:40.675Z,1.40
2022-09-07T21:22:08.761Z,1.10
2022-09-07T21:24:36.837Z,0.90
2022-09-07T21:27:05.158Z,1.05
2022-09-07T21:29:33.242Z,1.60
2022-09-07T21:32:01.318Z,2.58
2022-09-07T21:34:29.432Z,1.50
2022-09-07T21:36:58.980Z,1.30
2022-09-07T21:39:27.100Z,1.33
2022-09-07T21:41:56.448Z,1.60
2022-09-07T21:44:24.641Z,2.08
2022-09-07T21:46:52.759Z,1.23
2022-09-07T21:49:20.913Z,1.13
2022-09-07T21:51:48.957Z,1.10
2022-09-07T21:54:18.477Z,1.08
2022-09-07T21:56:47.038Z,1.33
2022-09-07T21:59:15.527Z,1.10
2022-09-07T22:01:43.684Z,0.70
2022-09-07T22:04:12.113Z,1.10
2022-09-07T22:06:41.118Z,1.50
2022-09-07T22:09:09.203Z,1.17
2022-09-07T22:11:41.101Z,0.93
2022-09-07T22:14:13.331Z,1.10
2022-09-07T22:16:41.410Z,1.77
2022-09-07T22:19:09.532Z,1.08
2022-09-07T22:21:37.806Z,1.10
2022-09-07T22:24:07.438Z,0.88
2022-09-07T22:26:38.645Z,1.10
2022-09-07T22:29:07.246Z,1.17
2022-09-07T22:31:37.257Z,1.20
2022-09-07T22:34:08.400Z,1.10
2022-09-07T22:36:37.826Z,1.33
2022-09-07T22:39:08.840Z,1.08
2022-09-07T22:41:39.914Z,1.20
2022-09-07T22:44:10.738Z,1.40
2022-09-07T22:46:40.787Z,1.40
2022-09-07T22:49:09.967Z,1.35
2022-09-07T22:51:38.047Z,1.60
2022-09-07T22:54:06.778Z,1.30
2022-09-07T22:56:35.737Z,1.17
2022-09-07T22:59:08.466Z,1.35
2022-09-07T23:01:37.617Z,1.55
2022-09-07T23:04:06.686Z,1.30
2022-09-07T23:06:36.744Z,1.27
2022-09-07T23:09:07.992Z,1.50
2022-09-07T23:11:36.333Z,1.52
2022-09-07T23:14:08.305Z,1.60
2022-09-07T23:16:36.428Z,1.27
2022-09-07T23:19:05.135Z,1.45
2022-09-07T23:21:33.221Z,1.20
2022-09-07T23:24:02.071Z,1.23
2022-09-07T23:26:32.088Z,1.42
2022-09-07T23:29:01.837Z,1.50
2022-09-07T23:31:33.261Z,1.33
2022-09-07T23:34:02.857Z,1.35
2022-09-07T23:36:31.479Z,1.50
2022-09-07T23:39:01.101Z,1.30
2022-09-07T23:41:29.800Z,1.23
2022-09-07T23:43:58.089Z,1.45
2022-09-07T23:46:26.518Z,1.23
2022-09-07T23:48:55.998Z,1.52
2022-09-07T23:51:24.823Z,1.35
2022-09-07T23:53:54.013Z,1.45
2022-09-07T23:56:24.402Z,1.08
2022-09-07T23:58:53.138Z,1.15
